sensor_id;sensor_type;location;lat;lon;timestamp;pressure;altitude;pressure_sealevel;temperature;humidity
16120;BME280;12670;53.502;10.252;2023-02-03T00:01:08;101382.78;;;5.64;100.00
16120;BME280;12670;53.502;10.252;2023-02-03T00:04:10;101368.00;;;5.50;100.00
16120;BME280;12670;53.502;10.252;2023-02-03T00:07:15;101361.78;;;5.56;100.00
16120;BME280;12670;53.502;10.252;2023-02-03T00:10:17;101353.63;;;5.79;100.00
16120;BME280;12670;53.502;10.252;2023-02-03T00:13:21;101344.25;;;5.56;100.00
16120;BME280;12670;53.502;10.252;2023-02-03T00:16:26;101355.56;;;5.65;100.00
16120;BME280;12670;53.502;10.252;2023-02-03T00:19:28;101355.59;;;5.61;100.00
16120;BME280;12670;53.502;10.252;2023-02-03T00:22:32;101335.34;;;5.67;100.00
16120;BME280;12670;53.502;10.252;2023-02-03T00:25:35;101341.38;;;5.78;100.00
16120;BME280;12670;53.502;10.252;2023-02-03T00:28:38;101332.66;;;5.73;100.00
16120;BME280;12670;53.502;10.252;2023-02-03T00:31:41;101324.50;;;5.94;100.00
16120;BME280;12670;53.502;10.252;2023-02-03T00:34:44;101328.19;;;5.78;100.00
16120;BME280;12670;53.502;10.252;2023-02-03T00:37:51;101328.19;;;5.81;100.00
16120;BME280;12670;53.502;10.252;2023-02-03T00:40:54;101307.69;;;6.04;100.00
16120;BME280;12670;53.502;10.252;2023-02-03T00:43:57;101314.94;;;5.84;100.00
16120;BME280;12670;53.502;10.252;2023-02-03T00:46:59;101309.75;;;5.78;100.00
16120;BME280;12670;53.502;10.252;2023-02-03T00:50:03;101307.66;;;6.06;100.00
16120;BME280;12670;53.502;10.252;2023-02-03T00:53:07;101293.41;;;6.19;100.00
16120;BME280;12670;53.502;10.252;2023-02-03T00:56:09;101293.47;;;6.14;100.00
16120;BME280;12670;53.502;10.252;2023-02-03T00:59:13;101296.00;;;6.24;100.00
16120;BME280;12670;53.502;10.252;2023-02-03T01:02:16;101285.63;;;6.11;100.00
16120;BME280;12670;53.502;10.252;2023-02-03T01:05:19;101286.25;;;6.29;100.00
16120;BME280;12670;53.502;10.252;2023-02-03T01:08:23;101282.44;;;6.48;100.00
16120;BME280;12670;53.502;10.252;2023-02-03T01:11:26;101270.19;;;6.46;100.00
16120;BME280;12670;53.502;10.252;2023-02-03T01:14:29;101262.09;;;6.55;100.00
16120;BME280;12670;53.502;10.252;2023-02-03T01:17:32;101260.94;;;6.71;100.00
16120;BME280;12670;53.502;10.252;2023-02-03T01:20:35;101252.84;;;6.82;100.00
16120;BME280;12670;53.502;10.252;2023-02-03T01:23:39;101243.84;;;6.93;100.00
16120;BME280;12670;53.502;10.252;2023-02-03T01:26:42;101244.47;;;7.06;100.00
16120;BME280;12670;53.502;10.252;2023-02-03T01:29:44;101229.47;;;7.10;100.00
16120;BME280;12670;53.502;10.252;2023-02-03T01:32:47;101217.81;;;7.20;100.00
16120;BME280;12670;53.502;10.252;2023-02-03T01:35:50;101209.88;;;7.21;100.00
16120;BME280;12670;53.502;10.252;2023-02-03T01:38:54;101200.97;;;7.26;100.00
16120;BME280;12670;53.502;10.252;2023-02-03T01:41:56;101194.91;;;7.22;100.00
16120;BME280;12670;53.502;10.252;2023-02-03T01:44:59;101192.00;;;7.34;100.00
16120;BME280;12670;53.502;10.252;2023-02-03T01:48:03;101168.25;;;7.34;100.00
16120;BME280;12670;53.502;10.252;2023-02-03T01:51:06;101169.81;;;7.43;100.00
16120;BME280;12670;53.502;10.252;2023-02-03T01:54:12;101153.91;;;7.46;100.00
16120;BME280;12670;53.502;10.252;2023-02-03T01:57:20;101144.28;;;7.45;100.00
16120;BME280;12670;53.502;10.252;2023-02-03T02:00:24;101145.88;;;7.52;100.00
16120;BME280;12670;53.502;10.252;2023-02-03T02:03:30;101166.41;;;7.38;100.00
16120;BME280;12670;53.502;10.252;2023-02-03T02:06:34;101173.31;;;7.45;100.00
16120;BME280;12670;53.502;10.252;2023-02-03T02:09:38;101173.19;;;7.51;100.00
16120;BME280;12670;53.502;10.252;2023-02-03T02:12:41;101158.06;;;7.56;100.00
16120;BME280;12670;53.502;10.252;2023-02-03T02:15:49;101153.50;;;7.64;100.00
16120;BME280;12670;53.502;10.252;2023-02-03T02:19:25;101165.38;;;7.45;100.00
16120;BME280;12670;53.502;10.252;2023-02-03T02:22:46;101162.47;;;7.57;100.00
16120;BME280;12670;53.502;10.252;2023-02-03T02:26:12;101156.19;;;7.63;100.00
16120;BME280;12670;53.502;10.252;2023-02-03T02:29:40;101149.19;;;7.60;100.00
16120;BME280;12670;53.502;10.252;2023-02-03T02:32:56;101129.13;;;7.53;100.00
16120;BME280;12670;53.502;10.252;2023-02-03T02:36:07;101134.44;;;7.50;100.00
16120;BME280;12670;53.502;10.252;2023-02-03T02:39:20;101138.56;;;7.62;100.00
16120;BME280;12670;53.502;10.252;2023-02-03T02:42:31;101131.56;;;7.62;100.00
16120;BME280;12670;53.502;10.252;2023-02-03T02:45:42;101133.53;;;7.53;100.00
16120;BME280;12670;53.502;10.252;2023-02-03T02:48:53;101135.19;;;7.57;100.00
16120;BME280;12670;53.502;10.252;2023-02-03T02:52:02;101127.28;;;7.55;100.00
16120;BME280;12670;53.502;10.252;2023-02-03T02:55:09;101134.44;;;7.50;100.00
16120;BME280;12670;53.502;10.252;2023-02-03T02:58:14;101150.28;;;7.52;100.00
16120;BME280;12670;53.502;10.252;2023-02-03T03:01:19;101132.56;;;7.55;100.00
16120;BME280;12670;53.502;10.252;2023-02-03T03:04:25;101129.84;;;7.60;100.00
16120;BME280;12670;53.502;10.252;2023-02-03T03:07:34;101121.88;;;7.61;100.00
16120;BME280;12670;53.502;10.252;2023-02-03T03:10:40;101112.16;;;7.63;100.00
16120;BME280;12670;53.502;10.252;2023-02-03T03:13:47;101104.28;;;7.60;100.00
16120;BME280;12670;53.502;10.252;2023-02-03T03:16:53;101097.13;;;7.65;100.00
16120;BME280;12670;53.502;10.252;2023-02-03T03:20:02;101090.03;;;7.67;100.00
16120;BME280;12670;53.502;10.252;2023-02-03T03:23:10;101077.59;;;7.72;100.00
16120;BME280;12670;53.502;10.252;2023-02-03T03:26:21;101086.31;;;7.76;100.00
16120;BME280;12670;53.502;10.252;2023-02-03T03:29:30;101061.84;;;7.69;100.00
16120;BME280;12670;53.502;10.252;2023-02-03T03:32:35;101063.63;;;7.67;100.00
16120;BME280;12670;53.502;10.252;2023-02-03T03:35:45;101072.31;;;7.72;100.00
16120;BME280;12670;53.502;10.252;2023-02-03T03:38:54;101060.00;;;7.71;100.00
16120;BME280;12670;53.502;10.252;2023-02-03T03:42:03;101044.16;;;7.71;100.00
16120;BME280;12670;53.502;10.252;2023-02-03T03:45:12;101034.41;;;7.75;100.00
16120;BME280;12670;53.502;10.252;2023-02-03T03:48:22;101025.41;;;7.82;100.00
16120;BME280;12670;53.502;10.252;2023-02-03T03:51:33;101033.28;;;7.84;100.00
16120;BME280;12670;53.502;10.252;2023-02-03T03:54:37;101040.47;;;7.79;100.00
16120;BME280;12670;53.502;10.252;2023-02-03T03:57:44;101029.06;;;7.77;100.00
16120;BME280;12670;53.502;10.252;2023-02-03T04:00:51;101046.69;;;7.76;100.00
16120;BME280;12670;53.502;10.252;2023-02-03T04:03:57;101042.28;;;7.77;100.00
16120;BME280;12670;53.502;10.252;2023-02-03T04:07:02;101040.72;;;7.69;100.00
16120;BME280;12670;53.502;10.252;2023-02-03T04:10:10;101028.16;;;7.78;100.00
16120;BME280;12670;53.502;10.252;2023-02-03T04:13:14;101027.72;;;7.60;100.00
16120;BME280;12670;53.502;10.252;2023-02-03T04:16:20;101023.28;;;7.62;100.00
16120;BME280;12670;53.502;10.252;2023-02-03T04:19:22;100997.84;;;7.58;100.00
16120;BME280;12670;53.502;10.252;2023-02-03T04:22:26;101008.41;;;7.58;100.00
16120;BME280;12670;53.502;10.252;2023-02-03T04:25:29;100997.75;;;7.63;100.00
16120;BME280;12670;53.502;10.252;2023-02-03T04:28:32;100987.34;;;7.57;100.00
16120;BME280;12670;53.502;10.252;2023-02-03T04:31:34;100982.94;;;7.57;100.00
16120;BME280;12670;53.502;10.252;2023-02-03T04:34:38;100981.03;;;7.62;100.00
16120;BME280;12670;53.502;10.252;2023-02-03T04:37:42;100967.25;;;7.51;100.00
16120;BME280;12670;53.502;10.252;2023-02-03T04:40:45;100969.75;;;7.56;100.00
16120;BME280;12670;53.502;10.252;2023-02-03T04:43:48;100971.50;;;7.55;100.00
16120;BME280;12670;53.502;10.252;2023-02-03T04:46:51;100967.94;;;7.58;100.00
16120;BME280;12670;53.502;10.252;2023-02-03T04:49:53;100977.75;;;7.53;100.00
16120;BME280;12670;53.502;10.252;2023-02-03T04:52:57;100973.25;;;7.56;100.00
16120;BME280;12670;53.502;10.252;2023-02-03T04:56:01;100975.16;;;7.51;100.00
16120;BME280;12670;53.502;10.252;2023-02-03T04:59:03;100976.09;;;7.48;100.00
16120;BME280;12670;53.502;10.252;2023-02-03T05:02:06;100977.88;;;7.48;100.00
16120;BME280;12670;53.502;10.252;2023-02-03T05:05:09;100963.69;;;7.52;100.00
16120;BME280;12670;53.502;10.252;2023-02-03T05:08:13;100943.31;;;7.57;100.00
16120;BME280;12670;53.502;10.252;2023-02-03T05:11:15;100942.16;;;7.67;100.00
16120;BME280;12670;53.502;10.252;2023-02-03T05:14:18;100936.09;;;7.64;100.00
16120;BME280;12670;53.502;10.252;2023-02-03T05:17:21;100935.41;;;7.57;100.00
16120;BME280;12670;53.502;10.252;2023-02-03T05:20:24;100930.03;;;7.60;100.00
16120;BME280;12670;53.502;10.252;2023-02-03T05:23:28;100909.88;;;7.58;100.00
16120;BME280;12670;53.502;10.252;2023-02-03T05:26:31;100905.44;;;7.58;100.00
16120;BME280;12670;53.502;10.252;2023-02-03T05:29:33;100895.47;;;7.68;100.00
16120;BME280;12670;53.502;10.252;2023-02-03T05:32:36;100902.84;;;7.57;100.00
16120;BME280;12670;53.502;10.252;2023-02-03T05:35:39;100884.56;;;7.49;100.00
16120;BME280;12670;53.502;10.252;2023-02-03T05:38:43;100906.53;;;7.51;100.00
16120;BME280;12670;53.502;10.252;2023-02-03T05:41:45;100908.91;;;7.60;100.00
16120;BME280;12670;53.502;10.252;2023-02-03T05:44:53;100908.91;;;7.60;100.00
16120;BME280;12670;53.502;10.252;2023-02-03T05:47:55;100898.34;;;7.60;100.00
16120;BME280;12670;53.502;10.252;2023-02-03T05:50:58;100891.34;;;7.59;100.00
16120;BME280;12670;53.502;10.252;2023-02-03T05:54:02;100887.88;;;7.57;100.00
16120;BME280;12670;53.502;10.252;2023-02-03T05:57:05;100883.47;;;7.58;100.00
16120;BME280;12670;53.502;10.252;2023-02-03T06:00:09;100878.88;;;7.64;100.00
16120;BME280;12670;53.502;10.252;2023-02-03T06:03:12;100896.84;;;7.50;100.00
16120;BME280;12670;53.502;10.252;2023-02-03T06:06:15;100882.59;;;7.57;100.00
16120;BME280;12670;53.502;10.252;2023-02-03T06:09:19;100886.00;;;7.61;100.00
16120;BME280;12670;53.502;10.252;2023-02-03T06:12:22;100877.16;;;7.63;100.00
16120;BME280;12670;53.502;10.252;2023-02-03T06:15:24;100873.75;;;7.58;100.00
16120;BME280;12670;53.502;10.252;2023-02-03T06:18:27;100874.00;;;7.49;100.00
16120;BME280;12670;53.502;10.252;2023-02-03T06:21:30;100849.44;;;7.47;100.00
16120;BME280;12670;53.502;10.252;2023-02-03T06:24:34;100857.22;;;7.52;100.00
16120;BME280;12670;53.502;10.252;2023-02-03T06:27:37;100849.31;;;7.50;100.00
16120;BME280;12670;53.502;10.252;2023-02-03T06:30:39;100828.19;;;7.50;100.00
16120;BME280;12670;53.502;10.252;2023-02-03T06:33:42;100840.34;;;7.57;100.00
16120;BME280;12670;53.502;10.252;2023-02-03T06:36:45;100829.56;;;7.65;100.00
16120;BME280;12670;53.502;10.252;2023-02-03T06:39:50;100827.00;;;7.62;100.00
16120;BME280;12670;53.502;10.252;2023-02-03T06:42:52;100839.56;;;7.54;100.00
16120;BME280;12670;53.502;10.252;2023-02-03T06:45:55;100835.81;;;7.62;100.00
16120;BME280;12670;53.502;10.252;2023-02-03T06:48:58;100822.69;;;7.59;100.00
16120;BME280;12670;53.502;10.252;2023-02-03T06:52:00;100820.13;;;7.56;100.00
16120;BME280;12670;53.502;10.252;2023-02-03T06:55:05;100812.19;;;7.58;100.00
16120;BME280;12670;53.502;10.252;2023-02-03T06:58:08;100815.31;;;7.70;100.00
16120;BME280;12670;53.502;10.252;2023-02-03T07:01:11;100810.22;;;7.64;100.00
16120;BME280;12670;53.502;10.252;2023-02-03T07:04:13;100820.03;;;7.59;100.00
16120;BME280;12670;53.502;10.252;2023-02-03T07:07:16;100806.63;;;7.67;100.00
16120;BME280;12670;53.502;10.252;2023-02-03T07:10:20;100805.81;;;7.65;100.00
16120;BME280;12670;53.502;10.252;2023-02-03T07:13:23;100805.63;;;7.71;100.00
16120;BME280;12670;53.502;10.252;2023-02-03T07:16:25;100818.78;;;7.72;100.00
16120;BME280;12670;53.502;10.252;2023-02-03T07:19:28;100796.59;;;7.78;100.00
16120;BME280;12670;53.502;10.252;2023-02-03T07:22:31;100780.81;;;7.77;100.00
16120;BME280;12670;53.502;10.252;2023-02-03T07:25:35;100785.00;;;7.84;100.00
16120;BME280;12670;53.502;10.252;2023-02-03T07:28:38;100785.22;;;7.76;100.00
16120;BME280;12670;53.502;10.252;2023-02-03T07:31:41;100766.63;;;7.81;100.00
16120;BME280;12670;53.502;10.252;2023-02-03T07:34:43;100783.28;;;7.83;100.00
16120;BME280;12670;53.502;10.252;2023-02-03T07:37:46;100787.44;;;7.90;100.00
16120;BME280;12670;53.502;10.252;2023-02-03T07:40:51;100778.91;;;7.82;100.00
16120;BME280;12670;53.502;10.252;2023-02-03T07:43:53;100782.22;;;7.88;100.00
16120;BME280;12670;53.502;10.252;2023-02-03T07:46:56;100787.44;;;7.90;100.00
16120;BME280;12670;53.502;10.252;2023-02-03T07:49:59;100795.56;;;7.84;100.00
16120;BME280;12670;53.502;10.252;2023-02-03T07:53:02;100790.19;;;7.87;100.00
16120;BME280;12670;53.502;10.252;2023-02-03T07:56:06;100782.16;;;7.90;100.00
16120;BME280;12670;53.502;10.252;2023-02-03T07:59:09;100790.19;;;7.87;100.00
16120;BME280;12670;53.502;10.252;2023-02-03T08:02:11;100796.91;;;7.97;100.00
16120;BME280;12670;53.502;10.252;2023-02-03T08:05:15;100784.53;;;7.99;100.00
16120;BME280;12670;53.502;10.252;2023-02-03T08:08:18;100798.50;;;8.04;100.00
16120;BME280;12670;53.502;10.252;2023-02-03T08:11:22;100795.78;;;8.06;100.00
16120;BME280;12670;53.502;10.252;2023-02-03T08:14:25;100815.22;;;8.03;100.00
16120;BME280;12670;53.502;10.252;2023-02-03T08:17:28;100843.94;;;8.15;100.00
16120;BME280;12670;53.502;10.252;2023-02-03T08:20:30;100869.84;;;8.02;100.00
16120;BME280;12670;53.502;10.252;2023-02-03T08:23:33;100863.63;;;8.05;100.00
16120;BME280;12670;53.502;10.252;2023-02-03T08:26:37;100874.94;;;8.09;100.00
16120;BME280;12670;53.502;10.252;2023-02-03T08:29:39;100887.28;;;7.79;100.00
16120;BME280;12670;53.502;10.252;2023-02-03T08:32:42;100881.06;;;7.81;100.00
16120;BME280;12670;53.502;10.252;2023-02-03T08:35:45;100880.00;;;7.87;100.00
16120;BME280;12670;53.502;10.252;2023-02-03T08:38:48;100890.75;;;7.81;100.00
16120;BME280;12670;53.502;10.252;2023-02-03T08:41:52;100877.66;;;7.76;100.00
16120;BME280;12670;53.502;10.252;2023-02-03T08:44:55;100892.72;;;7.72;100.00
16120;BME280;12670;53.502;10.252;2023-02-03T08:47:58;100898.63;;;7.82;100.00
16120;BME280;12670;53.502;10.252;2023-02-03T08:51:00;100903.09;;;7.80;100.00
16120;BME280;12670;53.502;10.252;2023-02-03T08:54:03;100906.50;;;7.84;100.00
16120;BME280;12670;53.502;10.252;2023-02-03T08:57:08;100909.25;;;7.81;100.00
16120;BME280;12670;53.502;10.252;2023-02-03T09:00:12;100912.41;;;7.93;100.00
16120;BME280;12670;53.502;10.252;2023-02-03T09:03:14;100901.03;;;7.90;100.00
16120;BME280;12670;53.502;10.252;2023-02-03T09:06:17;100886.09;;;7.89;100.00
16120;BME280;12670;53.502;10.252;2023-02-03T09:09:23;100898.34;;;7.91;100.00
16120;BME280;12670;53.502;10.252;2023-02-03T09:12:28;100898.53;;;7.85;100.00
16120;BME280;12670;53.502;10.252;2023-02-03T09:15:30;100902.69;;;7.94;100.00
16120;BME280;12670;53.502;10.252;2023-02-03T09:18:33;100889.66;;;7.88;100.00
16120;BME280;12670;53.502;10.252;2023-02-03T09:21:36;100897.75;;;7.82;100.00
16120;BME280;12670;53.502;10.252;2023-02-03T09:24:43;100902.69;;;7.94;100.00
16120;BME280;12670;53.502;10.252;2023-02-03T09:27:47;100926.47;;;7.94;100.00
16120;BME280;12670;53.502;10.252;2023-02-03T09:30:50;100913.44;;;7.88;100.00
16120;BME280;12670;53.502;10.252;2023-02-03T09:33:53;100894.91;;;7.89;100.00
16120;BME280;12670;53.502;10.252;2023-02-03T09:36:55;100901.59;;;8.01;100.00
16120;BME280;12670;53.502;10.252;2023-02-03T09:39:58;100898.78;;;8.07;100.00
16120;BME280;12670;53.502;10.252;2023-02-03T09:46:43;100927.22;;;7.99;100.00
16120;BME280;12670;53.502;10.252;2023-02-03T09:49:50;100938.19;;;8.16;100.00
16120;BME280;12670;53.502;10.252;2023-02-03T09:52:54;100937.69;;;8.02;100.00
16120;BME280;12670;53.502;10.252;2023-02-03T09:55:57;100943.81;;;8.04;100.00
16120;BME280;12670;53.502;10.252;2023-02-03T09:59:01;100935.97;;;8.01;100.00
16120;BME280;12670;53.502;10.252;2023-02-03T10:02:17;100951.56;;;8.10;100.00
16120;BME280;12670;53.502;10.252;2023-02-03T10:05:30;100963.84;;;8.11;100.00
16120;BME280;12670;53.502;10.252;2023-02-03T10:08:46;100968.06;;;8.18;100.00
16120;BME280;12670;53.502;10.252;2023-02-03T10:12:05;100980.22;;;8.24;100.00
16120;BME280;12670;53.502;10.252;2023-02-03T10:15:37;100967.94;;;8.23;100.00
16120;BME280;12670;53.502;10.252;2023-02-03T10:18:46;100974.16;;;8.20;100.00
16120;BME280;12670;53.502;10.252;2023-02-03T10:21:53;100986.50;;;8.21;100.00
16120;BME280;12670;53.502;10.252;2023-02-03T10:25:00;101000.75;;;8.14;100.00
16120;BME280;12670;53.502;10.252;2023-02-03T10:28:09;101008.84;;;8.10;100.00
16120;BME280;12670;53.502;10.252;2023-02-03T10:31:19;100996.22;;;8.19;100.00
16120;BME280;12670;53.502;10.252;2023-02-03T10:34:24;101000.50;;;8.23;100.00
16120;BME280;12670;53.502;10.252;2023-02-03T10:37:29;101006.66;;;8.24;100.00
16120;BME280;12670;53.502;10.252;2023-02-03T10:40:33;101007.81;;;8.15;100.00
16120;BME280;12670;53.502;10.252;2023-02-03T10:43:36;101014.03;;;8.13;100.00
16120;BME280;12670;53.502;10.252;2023-02-03T10:46:52;101027.13;;;8.17;100.00
16120;BME280;12670;53.502;10.252;2023-02-03T10:49:56;101021.91;;;8.14;100.00
16120;BME280;12670;53.502;10.252;2023-02-03T10:53:19;101030.78;;;8.12;100.00
16120;BME280;12670;53.502;10.252;2023-02-03T10:56:24;101019.63;;;8.00;100.00
16120;BME280;12670;53.502;10.252;2023-02-03T10:59:30;101022.75;;;8.16;100.00
16120;BME280;12670;53.502;10.252;2023-02-03T11:02:33;101043.38;;;8.02;100.00
16120;BME280;12670;53.502;10.252;2023-02-03T11:05:37;101033.66;;;8.04;100.00
16120;BME280;12670;53.502;10.252;2023-02-03T11:08:44;101033.50;;;8.09;100.00
16120;BME280;12670;53.502;10.252;2023-02-03T11:11:47;101066.66;;;8.22;100.00
16120;BME280;12670;53.502;10.252;2023-02-03T11:14:52;101055.84;;;8.29;100.00
16120;BME280;12670;53.502;10.252;2023-02-03T11:17:55;101055.28;;;8.18;100.00
16120;BME280;12670;53.502;10.252;2023-02-03T11:20:59;101062.75;;;8.35;100.00
16120;BME280;12670;53.502;10.252;2023-02-03T11:24:04;101053.28;;;8.26;100.00
16120;BME280;12670;53.502;10.252;2023-02-03T11:27:10;101046.81;;;8.38;100.00
16120;BME280;12670;53.502;10.252;2023-02-03T11:30:18;101067.09;;;8.38;99.55
16120;BME280;12670;53.502;10.252;2023-02-03T11:33:25;101043.94;;;8.47;98.91
16120;BME280;12670;53.502;10.252;2023-02-03T11:36:32;101056.34;;;8.44;98.81
16120;BME280;12670;53.502;10.252;2023-02-03T11:39:35;101059.75;;;8.49;99.08
16120;BME280;12670;53.502;10.252;2023-02-03T11:42:41;101043.84;;;8.50;96.97
16120;BME280;12670;53.502;10.252;2023-02-03T11:45:46;101059.78;;;8.78;96.48
16120;BME280;12670;53.502;10.252;2023-02-03T11:49:01;101049.56;;;8.66;94.32
16120;BME280;12670;53.502;10.252;2023-02-03T11:52:22;101063.06;;;8.57;93.89
16120;BME280;12670;53.502;10.252;2023-02-03T11:55:39;101052.56;;;8.54;93.69
16120;BME280;12670;53.502;10.252;2023-02-03T11:59:08;101051.78;;;8.50;94.50
16120;BME280;12670;53.502;10.252;2023-02-03T12:02:58;101057.16;;;8.47;94.00
16120;BME280;12670;53.502;10.252;2023-02-03T12:06:22;101052.66;;;8.51;94.48
16120;BME280;12670;53.502;10.252;2023-02-03T12:09:37;101063.31;;;8.48;94.52
16120;BME280;12670;53.502;10.252;2023-02-03T12:12:53;101066.22;;;8.39;94.68
16120;BME280;12670;53.502;10.252;2023-02-03T12:16:09;101114.63;;;8.41;94.10
16120;BME280;12670;53.502;10.252;2023-02-03T12:19:23;101102.22;;;8.43;95.22
16120;BME280;12670;53.502;10.252;2023-02-03T12:22:35;101103.59;;;8.58;92.89
16120;BME280;12670;53.502;10.252;2023-02-03T12:25:53;101117.25;;;8.73;93.56
16120;BME280;12670;53.502;10.252;2023-02-03T12:29:02;101114.91;;;8.63;92.99
16120;BME280;12670;53.502;10.252;2023-02-03T12:32:13;101103.66;;;8.56;92.52
16120;BME280;12670;53.502;10.252;2023-02-03T12:35:22;101122.28;;;8.50;91.90
16120;BME280;12670;53.502;10.252;2023-02-03T12:38:32;101134.63;;;8.51;93.75
16120;BME280;12670;53.502;10.252;2023-02-03T12:41:40;101131.28;;;8.44;92.81
16120;BME280;12670;53.502;10.252;2023-02-03T12:44:49;101133.53;;;8.24;93.56
16120;BME280;12670;53.502;10.252;2023-02-03T12:47:56;101130.78;;;8.28;94.10
16120;BME280;12670;53.502;10.252;2023-02-03T12:51:05;101129.91;;;8.28;94.50
16120;BME280;12670;53.502;10.252;2023-02-03T12:54:24;101113.97;;;8.31;93.47
16120;BME280;12670;53.502;10.252;2023-02-03T12:57:36;101151.78;;;8.35;93.06
16120;BME280;12670;53.502;10.252;2023-02-03T13:00:44;101134.34;;;8.26;95.30
16120;BME280;12670;53.502;10.252;2023-02-03T13:03:50;101123.25;;;8.13;95.20
16120;BME280;12670;53.502;10.252;2023-02-03T13:07:02;101126.69;;;8.17;95.89
16120;BME280;12670;53.502;10.252;2023-02-03T13:10:16;101136.38;;;8.16;96.31
16120;BME280;12670;53.502;10.252;2023-02-03T13:13:30;101157.00;;;8.02;95.62
16120;BME280;12670;53.502;10.252;2023-02-03T13:16:39;101141.06;;;8.05;95.46
16120;BME280;12670;53.502;10.252;2023-02-03T13:19:47;101159.41;;;8.11;95.04
16120;BME280;12670;53.502;10.252;2023-02-03T13:22:51;101149.78;;;8.09;96.98
16120;BME280;12670;53.502;10.252;2023-02-03T13:26:04;101144.47;;;8.10;96.31
16120;BME280;12670;53.502;10.252;2023-02-03T13:29:24;101169.19;;;8.08;97.07
16120;BME280;12670;53.502;10.252;2023-02-03T13:32:48;101163.13;;;8.02;96.24
16120;BME280;12670;53.502;10.252;2023-02-03T13:36:08;101171.06;;;8.02;95.58
16120;BME280;12670;53.502;10.252;2023-02-03T13:39:30;101148.19;;;8.01;94.69
16120;BME280;12670;53.502;10.252;2023-02-03T13:42:37;101167.47;;;8.07;95.68
16120;BME280;12670;53.502;10.252;2023-02-03T13:45:46;101165.06;;;7.96;95.30
16120;BME280;12670;53.502;10.252;2023-02-03T13:48:52;101164.28;;;7.92;96.26
16120;BME280;12670;53.502;10.252;2023-02-03T13:51:55;101183.75;;;7.88;96.98
16120;BME280;12670;53.502;10.252;2023-02-03T13:54:59;101181.94;;;7.90;96.82
16120;BME280;12670;53.502;10.252;2023-02-03T13:58:04;101168.78;;;7.89;96.48
16120;BME280;12670;53.502;10.252;2023-02-03T14:01:30;101166.94;;;7.92;96.19
16120;BME280;12670;53.502;10.252;2023-02-03T14:04:51;101169.59;;;7.91;96.21
16120;BME280;12670;53.502;10.252;2023-02-03T14:07:54;101176.63;;;7.92;95.69
16120;BME280;12670;53.502;10.252;2023-02-03T14:11:37;101188.88;;;7.94;94.81
16120;BME280;12670;53.502;10.252;2023-02-03T14:14:54;101176.53;;;7.95;95.36
16120;BME280;12670;53.502;10.252;2023-02-03T14:18:31;101164.31;;;7.91;96.30
16120;BME280;12670;53.502;10.252;2023-02-03T14:21:37;101191.59;;;7.91;95.08
16120;BME280;12670;53.502;10.252;2023-02-03T14:24:43;101205.94;;;7.80;95.07
16120;BME280;12670;53.502;10.252;2023-02-03T14:27:47;101189.91;;;7.89;96.38
16120;BME280;12670;53.502;10.252;2023-02-03T14:31:09;101197.22;;;7.78;95.76
16120;BME280;12670;53.502;10.252;2023-02-03T14:34:14;101190.09;;;7.81;96.28
16120;BME280;12670;53.502;10.252;2023-02-03T14:37:20;101198.41;;;7.64;97.71
16120;BME280;12670;53.502;10.252;2023-02-03T14:40:36;101196.44;;;7.72;97.02
16120;BME280;12670;53.502;10.252;2023-02-03T14:43:49;101197.22;;;7.78;96.21
16120;BME280;12670;53.502;10.252;2023-02-03T14:47:03;101220.22;;;7.72;96.97
16120;BME280;12670;53.502;10.252;2023-02-03T14:50:24;101212.16;;;7.79;97.37
16120;BME280;12670;53.502;10.252;2023-02-03T14:53:42;101197.34;;;7.71;97.60
16120;BME280;12670;53.502;10.252;2023-02-03T14:57:04;101218.34;;;7.78;97.23
16120;BME280;12670;53.502;10.252;2023-02-03T15:00:31;101213.28;;;7.67;97.75
16120;BME280;12670;53.502;10.252;2023-02-03T15:03:34;101222.94;;;7.68;98.72
16120;BME280;12670;53.502;10.252;2023-02-03T15:06:45;101223.56;;;7.81;97.22
16120;BME280;12670;53.502;10.252;2023-02-03T15:09:48;101231.72;;;7.70;97.30
16120;BME280;12670;53.502;10.252;2023-02-03T15:12:53;101256.50;;;7.64;97.51
16120;BME280;12670;53.502;10.252;2023-02-03T15:15:59;101226.66;;;7.59;97.73
16120;BME280;12670;53.502;10.252;2023-02-03T15:19:15;101227.63;;;7.55;98.69
16120;BME280;12670;53.502;10.252;2023-02-03T15:22:21;101231.84;;;7.64;98.54
16120;BME280;12670;53.502;10.252;2023-02-03T15:25:25;101238.19;;;7.55;98.45
16120;BME280;12670;53.502;10.252;2023-02-03T15:28:30;101242.34;;;7.67;98.49
16120;BME280;12670;53.502;10.252;2023-02-03T15:31:36;101233.63;;;7.63;98.55
16120;BME280;12670;53.502;10.252;2023-02-03T15:34:43;101244.06;;;7.68;98.72
16120;BME280;12670;53.502;10.252;2023-02-03T15:37:49;101255.44;;;7.71;98.43
16120;BME280;12670;53.502;10.252;2023-02-03T15:40:55;101276.63;;;7.70;98.28
16120;BME280;12670;53.502;10.252;2023-02-03T15:44:02;101252.16;;;7.60;99.19
16120;BME280;12670;53.502;10.252;2023-02-03T15:47:18;101291.81;;;7.59;98.86
16120;BME280;12670;53.502;10.252;2023-02-03T15:50:27;101286.41;;;7.65;98.81
16120;BME280;12670;53.502;10.252;2023-02-03T15:53:41;101277.72;;;7.60;99.00
16120;BME280;12670;53.502;10.252;2023-02-03T15:56:49;101278.72;;;7.54;99.62
16120;BME280;12670;53.502;10.252;2023-02-03T15:59:59;101293.47;;;7.64;99.52
16120;BME280;12670;53.502;10.252;2023-02-03T16:03:04;101283.00;;;7.60;98.85
16120;BME280;12670;53.502;10.252;2023-02-03T16:06:10;101275.84;;;7.65;99.09
16120;BME280;12670;53.502;10.252;2023-02-03T16:09:27;101287.53;;;7.53;99.47
16120;BME280;12670;53.502;10.252;2023-02-03T16:12:31;101292.50;;;7.68;99.09